createdAt,value
2018-02-22T00:01:37.346Z,81.48
2018-02-22T00:04:05.058Z,80.90
2018-02-22T00:06:32.810Z,81.42
2018-02-22T00:09:00.794Z,81.20
2018-02-22T00:11:28.555Z,81.18
2018-02-22T00:13:56.298Z,81.49
2018-02-22T00:16:24.704Z,81.20
2018-02-22T00:18:52.497Z,81.12
2018-02-22T00:21:20.249Z,80.87
2018-02-22T00:23:47.971Z,80.89
2018-02-22T00:26:15.727Z,80.66
2018-02-22T00:28:43.502Z,80.46
2018-02-22T00:31:11.359Z,80.90
2018-02-22T00:33:39.076Z,80.40
2018-02-22T00:36:06.828Z,80.68
2018-02-22T00:38:35.583Z,80.28
2018-02-22T00:41:03.379Z,80.34
2018-02-22T00:43:31.207Z,80.64
2018-02-22T00:45:58.911Z,81.91
2018-02-22T00:48:26.836Z,81.93
2018-02-22T00:50:54.700Z,81.03
2018-02-22T00:53:23.960Z,80.96
2018-02-22T00:55:52.376Z,79.71
2018-02-22T00:58:21.081Z,79.63
2018-02-22T01:00:48.798Z,79.60
2018-02-22T01:03:17.310Z,80.11
2018-02-22T01:05:45.259Z,79.63
2018-02-22T01:08:13.613Z,81.32
2018-02-22T01:10:41.359Z,80.58
2018-02-22T01:13:09.138Z,79.95
2018-02-22T01:15:36.902Z,79.23
2018-02-22T01:18:04.612Z,78.83
2018-02-22T01:20:32.381Z,79.54
2018-02-22T01:23:00.152Z,79.46
2018-02-22T01:25:28.856Z,79.70
2018-02-22T01:27:56.908Z,81.54
2018-02-22T01:30:24.647Z,82.24
2018-02-22T01:32:52.461Z,84.05
2018-02-22T01:35:20.164Z,84.08
2018-02-22T01:37:47.995Z,84.44
2018-02-22T01:40:15.803Z,82.86
2018-02-22T01:42:43.501Z,82.65
2018-02-22T01:45:11.270Z,82.68
2018-02-22T01:47:39.747Z,83.53
2018-02-22T01:50:07.440Z,83.78
2018-02-22T01:52:35.221Z,83.58
2018-02-22T01:55:03.018Z,83.15
2018-02-22T01:57:30.785Z,82.87
2018-02-22T01:59:58.565Z,81.60
2018-02-22T02:02:26.889Z,80.75
2018-02-22T02:04:54.644Z,80.73
2018-02-22T02:07:23.090Z,79.76
2018-02-22T02:09:50.785Z,80.21
2018-02-22T02:12:18.562Z,78.39
2018-02-22T02:14:47.949Z,79.32
2018-02-22T02:17:17.083Z,79.33
2018-02-22T02:19:44.758Z,79.01
2018-02-22T02:22:12.494Z,78.73
2018-02-22T02:24:41.122Z,78.01
2018-02-22T02:27:08.843Z,79.30
2018-02-22T02:29:37.486Z,79.16
2018-02-22T02:32:05.186Z,80.18
2018-02-22T02:34:33.041Z,80.02
2018-02-22T02:37:00.696Z,78.93
2018-02-22T02:39:28.402Z,78.98
2018-02-22T02:41:56.162Z,78.59
2018-02-22T02:44:23.827Z,78.24
2018-02-22T02:46:51.608Z,78.78
2018-02-22T02:49:19.359Z,78.01
2018-02-22T02:51:47.090Z,77.65
2018-02-22T02:54:14.813Z,78.09
2018-02-22T02:56:42.577Z,78.46
2018-02-22T02:59:10.269Z,79.60
2018-02-22T03:01:39.145Z,80.08
2018-02-22T03:04:06.889Z,79.79
2018-02-22T03:06:35.362Z,79.47
2018-02-22T03:09:04.222Z,79.88
2018-02-22T03:11:31.955Z,80.33
2018-02-22T03:13:59.734Z,80.45
2018-02-22T03:16:28.218Z,80.76
2018-02-22T03:18:56.792Z,80.64
2018-02-22T03:21:25.548Z,81.30
2018-02-22T03:23:54.058Z,80.68
2018-02-22T03:26:21.787Z,79.65
2018-02-22T03:28:49.640Z,79.09
2018-02-22T03:31:18.490Z,78.20
2018-02-22T03:33:47.402Z,77.96
2018-02-22T03:36:15.116Z,78.37
2018-02-22T03:38:44.215Z,77.87
2018-02-22T03:41:11.993Z,78.51
2018-02-22T03:43:39.728Z,78.55
2018-02-22T03:46:08.231Z,78.23
2018-02-22T03:48:37.783Z,77.34
2018-02-22T03:51:05.470Z,77.47
2018-02-22T03:53:33.883Z,76.73
2018-02-22T03:56:02.948Z,75.91
2018-02-22T03:58:35.249Z,77.28
2018-02-22T04:01:03.783Z,78.63
2018-02-22T04:03:31.705Z,79.42
2018-02-22T04:06:01.501Z,79.58
2018-02-22T04:08:30.098Z,79.94
2018-02-22T04:10:57.805Z,80.22
2018-02-22T04:13:28.941Z,80.05
2018-02-22T04:15:58.708Z,80.35
2018-02-22T04:18:27.332Z,79.30
2018-02-22T04:20:55.929Z,79.46
2018-02-22T04:23:24.785Z,79.75
2018-02-22T04:25:53.948Z,77.07
2018-02-22T04:28:25.350Z,76.99
2018-02-22T04:30:54.367Z,76.85
2018-02-22T04:33:23.022Z,77.31
2018-02-22T04:35:51.550Z,77.36
2018-02-22T04:38:20.605Z,77.52
2018-02-22T04:40:49.015Z,78.77
2018-02-22T04:43:16.700Z,78.79
2018-02-22T04:45:45.280Z,78.71
2018-02-22T04:48:13.721Z,78.47
2018-02-22T04:50:41.490Z,76.49
2018-02-22T04:53:12.210Z,76.19
2018-02-22T04:55:39.901Z,75.61
2018-02-22T04:58:07.637Z,76.46
2018-02-22T05:00:35.324Z,76.91
2018-02-22T05:03:03.986Z,77.14
2018-02-22T05:05:32.415Z,77.15
2018-02-22T05:08:00.233Z,78.21
2018-02-22T05:10:27.968Z,78.55
2018-02-22T05:12:59.604Z,77.78
2018-02-22T05:15:28.174Z,76.49
2018-02-22T05:17:55.924Z,76.84
2018-02-22T05:20:25.651Z,76.42
2018-02-22T05:22:54.525Z,75.40
2018-02-22T05:25:23.487Z,75.30
2018-02-22T05:27:51.532Z,75.08
2018-02-22T05:30:20.157Z,76.08
2018-02-22T05:32:47.928Z,76.71
2018-02-22T05:35:15.670Z,76.65
2018-02-22T05:37:47.163Z,76.18
2018-02-22T05:40:15.816Z,75.18
2018-02-22T05:42:43.570Z,76.90
2018-02-22T05:45:11.444Z,77.20
2018-02-22T05:47:39.138Z,78.20
2018-02-22T05:50:06.883Z,79.00
2018-02-22T05:52:34.807Z,78.52
2018-02-22T05:55:02.672Z,78.23
2018-02-22T05:57:30.627Z,78.30
2018-02-22T05:59:58.627Z,78.50
2018-02-22T06:02:27.442Z,78.82
2018-02-22T06:04:56.807Z,78.19
2018-02-22T06:07:24.752Z,77.75
2018-02-22T06:09:53.080Z,78.46
2018-02-22T06:12:24.516Z,78.96
2018-02-22T06:14:52.253Z,79.31
2018-02-22T06:17:19.978Z,77.97
2018-02-22T06:19:47.733Z,76.78
2018-02-22T06:22:16.347Z,78.66
2018-02-22T06:24:44.093Z,78.90
2018-02-22T06:27:13.782Z,78.68
2018-02-22T06:29:42.451Z,78.27
2018-02-22T06:32:10.810Z,78.04
2018-02-22T06:34:38.594Z,78.40
2018-02-22T06:37:09.200Z,78.61
2018-02-22T06:39:37.563Z,77.56
2018-02-22T06:42:07.156Z,77.40
2018-02-22T06:44:36.063Z,77.91
2018-02-22T06:47:04.558Z,78.19
2018-02-22T06:49:33.454Z,76.62
2018-02-22T06:52:01.449Z,76.79
2018-02-22T06:54:30.291Z,76.57
2018-02-22T06:56:57.988Z,75.89
2018-02-22T06:59:27.626Z,76.04
2018-02-22T07:02:00.538Z,75.13
2018-02-22T07:04:32.643Z,75.25
2018-02-22T07:07:00.407Z,75.35
2018-02-22T07:09:28.131Z,74.38
2018-02-22T07:11:55.861Z,74.53
2018-02-22T07:14:23.669Z,73.67
2018-02-22T07:16:58.373Z,74.17
2018-02-22T07:19:26.934Z,74.84
2018-02-22T07:21:54.711Z,74.58
2018-02-22T07:24:22.469Z,73.54
2018-02-22T07:26:50.167Z,73.05
2018-02-22T07:29:22.204Z,72.36
2018-02-22T07:31:50.508Z,72.03
2018-02-22T07:34:20.117Z,71.49
2018-02-22T07:36:58.720Z,71.56
2018-02-22T07:39:27.089Z,73.13
2018-02-22T07:41:56.459Z,73.60
2018-02-22T07:44:24.809Z,73.18
2018-02-22T07:46:56.422Z,72.50
2018-02-22T07:49:24.127Z,72.04
2018-02-22T07:51:51.870Z,73.49
2018-02-22T07:56:54.639Z,71.20
2018-02-22T07:59:27.201Z,71.24
2018-02-22T08:01:55.741Z,70.87
2018-02-22T08:04:23.512Z,71.44
2018-02-22T08:06:52.871Z,71.85
2018-02-22T08:09:20.602Z,72.26
2018-02-22T08:11:48.330Z,71.56
2018-02-22T08:14:16.081Z,70.47
2018-02-22T08:16:44.460Z,71.06
2018-02-22T08:19:12.160Z,70.91
2018-02-22T08:21:39.975Z,72.02
2018-02-22T08:24:08.463Z,71.30
2018-02-22T08:26:37.167Z,70.10
2018-02-22T08:29:04.962Z,69.72
2018-02-22T08:31:34.441Z,70.35
2018-02-22T08:34:04.128Z,68.95
2018-02-22T08:36:34.758Z,69.71
2018-02-22T08:39:03.716Z,70.00
2018-02-22T08:41:31.560Z,69.32
2018-02-22T08:43:59.342Z,68.51
2018-02-22T08:46:31.320Z,68.12
2018-02-22T08:48:59.150Z,68.98
2018-02-22T08:51:26.908Z,68.69
2018-02-22T08:53:54.619Z,68.19
2018-02-22T08:56:22.439Z,68.90
2018-02-22T08:58:50.316Z,69.38
2018-02-22T09:01:18.068Z,69.67
2018-02-22T09:03:45.887Z,69.70
2018-02-22T09:06:13.790Z,69.75
2018-02-22T09:08:41.562Z,70.07
2018-02-22T09:11:09.376Z,70.31
2018-02-22T09:13:37.152Z,69.47
2018-02-22T09:16:06.067Z,70.82
2018-02-22T09:18:33.898Z,70.68
2018-02-22T09:21:01.872Z,71.46
2018-02-22T09:23:29.782Z,70.39
2018-02-22T09:25:57.552Z,71.85
2018-02-22T09:28:25.252Z,71.92
2018-02-22T09:30:53.061Z,71.70
2018-02-22T09:33:20.774Z,72.09
2018-02-22T09:35:48.512Z,71.23
2018-02-22T09:38:16.276Z,72.28
2018-02-22T09:40:44.142Z,72.43
2018-02-22T09:43:11.886Z,72.82
2018-02-22T09:45:39.648Z,73.38
2018-02-22T09:48:08.217Z,72.86
2018-02-22T09:50:35.972Z,73.05
2018-02-22T09:53:03.807Z,74.25
2018-02-22T09:55:31.595Z,73.67
2018-02-22T09:57:59.322Z,73.33
2018-02-22T10:00:27.122Z,72.86
2018-02-22T10:02:55.533Z,75.28
2018-02-22T10:05:23.284Z,75.58
2018-02-22T10:07:51.080Z,75.31
2018-02-22T10:10:21.659Z,74.18
2018-02-22T10:12:49.506Z,72.52
2018-02-22T10:15:17.401Z,73.59
2018-02-22T10:17:45.350Z,72.99
2018-02-22T10:20:13.149Z,72.54
2018-02-22T10:22:40.984Z,72.13
2018-02-22T10:25:09.342Z,73.49
2018-02-22T10:27:37.115Z,71.87
2018-02-22T10:30:04.904Z,70.96
2018-02-22T10:32:32.688Z,71.16
2018-02-22T10:35:00.382Z,70.24
2018-02-22T10:37:28.203Z,69.79
2018-02-22T10:39:56.185Z,69.77
2018-02-22T10:42:23.924Z,66.73
2018-02-22T10:44:51.742Z,67.82
2018-02-22T10:47:19.523Z,69.43
2018-02-22T10:49:47.416Z,69.36
2018-02-22T10:52:15.276Z,67.69
2018-02-22T10:54:43.030Z,67.83
2018-02-22T10:57:10.803Z,67.44
2018-02-22T10:59:39.258Z,65.83
2018-02-22T11:02:12.682Z,64.42
2018-02-22T11:04:40.384Z,66.20
2018-02-22T11:07:08.084Z,67.32
2018-02-22T11:09:35.854Z,65.94
2018-02-22T11:12:03.704Z,63.67
2018-02-22T11:14:31.508Z,63.61
2018-02-22T11:16:59.263Z,62.84
2018-02-22T11:19:27.035Z,64.18
2018-02-22T11:21:54.883Z,63.86
2018-02-22T11:24:22.641Z,63.10
2018-02-22T11:26:51.476Z,64.20
2018-02-22T11:29:19.226Z,65.75
2018-02-22T11:31:47.118Z,64.18
2018-02-22T11:34:14.857Z,63.49
2018-02-22T11:36:42.629Z,63.38
2018-02-22T11:39:10.495Z,60.90
2018-02-22T11:41:38.478Z,63.89
2018-02-22T11:44:06.369Z,64.93
2018-02-22T11:46:34.167Z,65.08
2018-02-22T11:49:02.200Z,64.10
2018-02-22T11:51:30.038Z,64.74
2018-02-22T11:53:57.864Z,64.60
2018-02-22T11:56:25.680Z,63.88
2018-02-22T11:58:53.397Z,64.46
2018-02-22T12:01:21.237Z,62.76
2018-02-22T12:03:49.029Z,63.67
2018-02-22T12:06:19.063Z,64.86
2018-02-22T12:08:47.054Z,64.96
2018-02-22T12:11:15.033Z,64.45
2018-02-22T12:13:44.059Z,65.13
2018-02-22T12:16:11.843Z,65.44
2018-02-22T12:18:39.555Z,63.35
2018-02-22T12:21:07.394Z,63.22
2018-02-22T12:23:35.105Z,63.40
2018-02-22T12:26:02.958Z,65.13
2018-02-22T12:28:30.765Z,65.84
2018-02-22T12:30:58.560Z,65.88
2018-02-22T12:33:27.356Z,65.25
2018-02-22T12:35:55.173Z,65.22
2018-02-22T12:38:22.987Z,64.45
2018-02-22T12:40:50.697Z,62.50
2018-02-22T12:43:18.402Z,63.85
2018-02-22T12:45:46.164Z,65.60
2018-02-22T12:48:13.981Z,65.34
2018-02-22T12:50:41.826Z,65.83
2018-02-22T12:53:09.712Z,64.70
2018-02-22T12:58:30.923Z,65.39
2018-02-22T13:00:58.691Z,64.39
2018-02-22T13:03:26.474Z,65.23
2018-02-22T13:05:54.246Z,66.15
2018-02-22T13:08:21.995Z,64.79
2018-02-22T13:10:49.724Z,66.05
2018-02-22T13:13:17.535Z,64.72
2018-02-22T13:15:45.301Z,64.76
2018-02-22T13:18:13.080Z,65.03
2018-02-22T13:20:40.830Z,65.75
2018-02-22T13:23:08.597Z,66.02
2018-02-22T13:25:36.388Z,64.77
2018-02-22T13:28:04.091Z,65.52
2018-02-22T13:30:31.827Z,65.83
2018-02-22T13:33:11.232Z,66.57
2018-02-22T13:35:39.059Z,65.98
2018-02-22T13:38:18.485Z,66.28
2018-02-22T13:40:46.275Z,66.47
2018-02-22T13:43:13.979Z,65.36
2018-02-22T13:45:41.782Z,65.88
2018-02-22T13:48:09.500Z,65.99
2018-02-22T13:50:49.053Z,65.56
2018-02-22T13:53:16.752Z,66.74
2018-02-22T13:55:44.491Z,65.85
2018-02-22T13:58:12.244Z,65.58
2018-02-22T14:00:51.702Z,63.94
2018-02-22T14:03:19.542Z,66.04
2018-02-22T14:05:47.407Z,64.89
2018-02-22T14:08:26.989Z,65.99
2018-02-22T14:10:54.757Z,66.64
2018-02-22T14:13:22.571Z,65.89
2018-02-22T14:15:50.363Z,66.50
2018-02-22T14:18:18.028Z,65.17
2018-02-22T14:20:46.664Z,66.18
2018-02-22T14:23:14.493Z,64.16
2018-02-22T14:25:42.353Z,65.84
2018-02-22T14:28:10.061Z,66.43
2018-02-22T14:30:37.815Z,67.71
2018-02-22T14:33:05.664Z,67.47
2018-02-22T14:35:33.503Z,67.57
2018-02-22T14:38:01.241Z,67.66
2018-02-22T14:40:29.166Z,67.87
2018-02-22T14:42:56.964Z,67.87
2018-02-22T14:45:24.793Z,68.53
2018-02-22T14:47:52.592Z,67.87
2018-02-22T14:50:20.450Z,68.13
2018-02-22T14:52:48.276Z,68.70
2018-02-22T14:55:16.141Z,67.99
2018-02-22T14:57:43.976Z,68.33
2018-02-22T15:00:11.727Z,66.92
2018-02-22T15:02:39.552Z,67.03
2018-02-22T15:05:07.254Z,66.89
2018-02-22T15:07:35.233Z,67.91
2018-02-22T15:10:03.118Z,67.73
2018-02-22T15:12:30.973Z,68.24
2018-02-22T15:14:58.711Z,67.69
2018-02-22T15:17:26.568Z,67.60
2018-02-22T15:19:54.346Z,68.83
2018-02-22T15:22:22.193Z,68.15
2018-02-22T15:24:49.928Z,68.13
2018-02-22T15:27:17.728Z,67.95
2018-02-22T15:29:45.509Z,68.28
2018-02-22T15:32:13.311Z,68.62
2018-02-22T15:34:41.096Z,68.44
2018-02-22T15:37:08.963Z,68.63
2018-02-22T15:39:36.776Z,68.99
2018-02-22T15:42:05.984Z,69.83
2018-02-22T15:44:33.919Z,70.54
2018-02-22T15:47:01.768Z,70.81
2018-02-22T15:49:29.892Z,71.11
2018-02-22T15:51:58.127Z,71.09
2018-02-22T15:54:27.181Z,70.67
2018-02-22T15:56:55.454Z,70.88
2018-02-22T15:59:23.633Z,71.25
2018-02-22T16:01:51.837Z,70.83
2018-02-22T16:04:19.803Z,69.06
2018-02-22T16:06:47.596Z,70.32
2018-02-22T16:09:15.476Z,70.56
2018-02-22T16:11:43.267Z,70.67
2018-02-22T16:14:11.381Z,71.17
2018-02-22T16:16:39.475Z,71.40
2018-02-22T16:19:07.590Z,71.69
2018-02-22T16:21:35.783Z,71.73
2018-02-22T16:24:04.019Z,71.97
2018-02-22T16:26:31.823Z,71.14
2018-02-22T16:29:00.290Z,71.50
2018-02-22T16:31:29.083Z,71.04
2018-02-22T16:33:57.111Z,71.70
2018-02-22T16:36:25.279Z,71.40
2018-02-22T16:38:53.508Z,71.70
2018-02-22T16:41:21.576Z,72.11
2018-02-22T16:43:49.660Z,72.08
2018-02-22T16:46:17.847Z,72.78
2018-02-22T16:48:48.279Z,73.18
2018-02-22T16:51:17.075Z,73.60
2018-02-22T16:53:46.211Z,74.09
2018-02-22T16:56:14.347Z,73.91
2018-02-22T16:58:42.161Z,73.81
2018-02-22T17:01:10.117Z,73.56
2018-02-22T17:03:38.908Z,72.83
2018-02-22T17:06:06.856Z,73.43
2018-02-22T17:08:34.697Z,73.54
2018-02-22T17:11:03.836Z,73.32
2018-02-22T17:13:31.764Z,73.56
2018-02-22T17:16:00.330Z,73.50
2018-02-22T17:18:28.143Z,74.18
2018-02-22T17:20:55.935Z,74.07
2018-02-22T17:23:24.727Z,74.50
2018-02-22T17:25:58.090Z,73.18
2018-02-22T17:28:31.463Z,74.14
2018-02-22T17:31:04.789Z,74.22
2018-02-22T17:33:33.039Z,73.80
2018-02-22T17:36:02.098Z,74.04
2018-02-22T17:38:31.083Z,74.14
2018-02-22T17:41:00.844Z,74.64
2018-02-22T17:43:30.301Z,74.20
2018-02-22T17:45:58.367Z,72.97
2018-02-22T17:48:26.917Z,73.61
2018-02-22T17:50:55.229Z,74.37
2018-02-22T17:53:25.375Z,74.34
2018-02-22T17:55:54.318Z,74.70
2018-02-22T17:58:22.854Z,74.20
2018-02-22T18:00:52.486Z,74.69
2018-02-22T18:03:21.527Z,74.59
2018-02-22T18:05:50.062Z,74.57
2018-02-22T18:08:18.150Z,73.97
2018-02-22T18:10:46.671Z,74.75
2018-02-22T18:13:15.339Z,74.08
2018-02-22T18:15:44.298Z,72.99
2018-02-22T18:18:15.693Z,73.47
2018-02-22T18:20:44.553Z,74.18
2018-02-22T18:23:12.575Z,74.92
2018-02-22T18:25:41.614Z,74.93
2018-02-22T18:28:09.583Z,74.98
2018-02-22T18:30:37.832Z,74.93
2018-02-22T18:33:06.090Z,74.36
2018-02-22T18:35:34.203Z,74.44
2018-02-22T18:38:03.930Z,74.05
2018-02-22T18:40:37.420Z,74.15
2018-02-22T18:43:12.383Z,75.07
2018-02-22T18:45:40.557Z,75.28
2018-02-22T18:48:09.566Z,75.04
2018-02-22T18:50:37.744Z,74.85
2018-02-22T18:53:05.796Z,74.54
2018-02-22T18:55:33.910Z,73.75
2018-02-22T18:58:03.034Z,74.35
2018-02-22T19:00:31.101Z,73.86
2018-02-22T19:03:00.991Z,73.99
2018-02-22T19:05:29.261Z,73.46
2018-02-22T19:07:57.565Z,73.15
2018-02-22T19:10:26.587Z,73.63
2018-02-22T19:12:54.620Z,73.66
2018-02-22T19:15:22.649Z,74.15
2018-02-22T19:17:50.688Z,74.05
2018-02-22T19:20:18.966Z,74.12
2018-02-22T19:22:48.206Z,73.43
2018-02-22T19:25:16.138Z,74.12
2018-02-22T19:27:44.052Z,73.57
2018-02-22T19:30:12.924Z,74.37
2018-02-22T19:32:42.459Z,74.07
2018-02-22T19:35:11.529Z,73.93
2018-02-22T19:37:41.283Z,73.54
2018-02-22T19:40:11.220Z,74.26
2018-02-22T19:42:39.590Z,74.03
2018-02-22T19:45:07.861Z,73.15
2018-02-22T19:47:37.745Z,72.89
2018-02-22T19:50:06.651Z,72.83
2018-02-22T19:52:35.711Z,73.74
2018-02-22T19:55:05.394Z,74.20
2018-02-22T19:57:34.772Z,74.03
2018-02-22T20:00:03.982Z,73.93
2018-02-22T20:02:32.541Z,73.62
2018-02-22T20:05:01.799Z,74.17
2018-02-22T20:07:31.168Z,73.92
2018-02-22T20:10:03.402Z,73.83
2018-02-22T20:12:32.101Z,73.63
2018-02-22T20:15:01.335Z,74.79
2018-02-22T20:17:31.800Z,75.73
2018-02-22T20:20:01.765Z,75.15
2018-02-22T20:22:32.182Z,74.74
2018-02-22T20:25:00.294Z,73.93
2018-02-22T20:27:29.137Z,74.54
2018-02-22T20:30:00.847Z,74.56
2018-02-22T20:32:31.711Z,74.45
2018-02-22T20:35:02.208Z,74.59
2018-02-22T20:37:31.372Z,74.56
2018-02-22T20:40:03.469Z,74.78
2018-02-22T20:42:33.484Z,74.56
2018-02-22T20:45:01.987Z,75.59
2018-02-22T20:47:31.409Z,75.64
2018-02-22T20:50:01.356Z,74.83
2018-02-22T20:52:32.674Z,75.02
2018-02-22T20:55:17.234Z,75.21
2018-02-22T20:57:45.527Z,75.29
2018-02-22T21:00:15.197Z,75.40
2018-02-22T21:02:45.609Z,75.33
2018-02-22T21:05:17.437Z,75.47
2018-02-22T21:07:46.321Z,75.04
2018-02-22T21:10:17.130Z,74.88
2018-02-22T21:12:46.766Z,74.96
2018-02-22T21:15:16.954Z,74.72
2018-02-22T21:17:46.012Z,74.49
2018-02-22T21:20:15.301Z,73.75
2018-02-22T21:22:46.821Z,74.71
2018-02-22T21:25:16.206Z,74.15
2018-02-22T21:27:46.839Z,74.37
2018-02-22T21:30:18.505Z,75.08
2018-02-22T21:32:48.965Z,74.88
2018-02-22T21:35:18.888Z,75.14
2018-02-22T21:37:47.700Z,75.31
2018-02-22T21:40:21.235Z,75.63
2018-02-22T21:42:50.297Z,75.43
2018-02-22T21:45:19.113Z,75.70
2018-02-22T21:47:47.675Z,75.72
2018-02-22T21:50:17.466Z,75.47
2018-02-22T21:52:46.016Z,75.22
2018-02-22T21:55:17.128Z,74.88
2018-02-22T21:57:45.823Z,74.67
2018-02-22T22:00:13.647Z,73.95
2018-02-22T22:02:41.467Z,74.42
2018-02-22T22:05:09.183Z,75.77
2018-02-22T22:07:36.960Z,75.78
2018-02-22T22:10:08.228Z,75.23
2018-02-22T22:12:36.274Z,75.15
2018-02-22T22:15:03.964Z,75.38
2018-02-22T22:17:32.929Z,75.32
2018-02-22T22:20:01.937Z,75.15
2018-02-22T22:22:30.590Z,75.46
2018-02-22T22:25:00.183Z,75.56
2018-02-22T22:27:28.554Z,75.44
2018-02-22T22:29:56.680Z,75.29
2018-02-22T22:32:24.378Z,76.04
2018-02-22T22:34:52.153Z,76.37
2018-02-22T22:37:19.926Z,76.51
2018-02-22T22:39:47.727Z,75.95
2018-02-22T22:42:15.490Z,76.85
2018-02-22T22:44:44.161Z,76.69
2018-02-22T22:47:12.118Z,77.32
2018-02-22T22:49:40.672Z,76.40
2018-02-22T22:52:09.227Z,76.71
2018-02-22T22:54:37.119Z,76.74
2018-02-22T22:57:04.955Z,76.19
2018-02-22T22:59:32.916Z,76.62
2018-02-22T23:02:00.911Z,76.98
2018-02-22T23:04:28.650Z,76.82
2018-02-22T23:06:56.400Z,77.49
2018-02-22T23:09:24.103Z,77.11
2018-02-22T23:11:51.908Z,76.09
2018-02-22T23:14:19.594Z,77.09
2018-02-22T23:16:47.456Z,77.12
2018-02-22T23:19:15.276Z,76.78
2018-02-22T23:21:43.057Z,77.13
2018-02-22T23:24:10.885Z,77.43
2018-02-22T23:26:42.476Z,76.85
2018-02-22T23:29:12.956Z,76.85
2018-02-22T23:31:40.734Z,77.58
2018-02-22T23:34:08.503Z,77.46
2018-02-22T23:36:37.507Z,77.29
2018-02-22T23:39:06.066Z,77.65
2018-02-22T23:44:35.288Z,76.99
2018-02-22T23:47:03.129Z,76.75
2018-02-22T23:49:30.908Z,77.36
2018-02-22T23:51:58.721Z,77.57
2018-02-22T23:54:26.566Z,77.29
2018-02-22T23:56:54.630Z,77.08
2018-02-22T23:59:26.045Z,77.14
